createdAt,value
2022-12-07T00:01:11.763Z,68.40
2022-12-07T00:03:40.718Z,69.98
2022-12-07T00:06:09.427Z,69.34
2022-12-07T00:08:36.258Z,69.01
2022-12-07T00:11:09.099Z,70.30
2022-12-07T00:13:36.635Z,69.97
2022-12-07T00:16:09.145Z,70.64
2022-12-07T00:18:35.951Z,69.78
2022-12-07T00:21:08.463Z,70.19
2022-12-07T00:23:35.072Z,70.25
2022-12-07T00:26:23.042Z,70.71
2022-12-07T00:28:55.978Z,69.92
2022-12-07T00:31:25.508Z,69.37
2022-12-07T00:33:52.557Z,70.03
2022-12-07T00:36:26.332Z,70.21
2022-12-07T00:38:58.543Z,69.23
2022-12-07T00:41:28.226Z,69.87
2022-12-07T00:43:55.411Z,70.92
2022-12-07T00:46:22.983Z,70.96
2022-12-07T00:48:50.838Z,70.46
2022-12-07T00:51:19.870Z,69.91
2022-12-07T00:53:47.343Z,69.78
2022-12-07T00:56:17.689Z,69.62
2022-12-07T00:58:45.140Z,69.89
2022-12-07T01:01:12.526Z,68.49
2022-12-07T01:03:39.453Z,68.92
2022-12-07T01:06:06.398Z,69.04
2022-12-07T01:08:33.197Z,69.39
2022-12-07T01:11:01.691Z,70.21
2022-12-07T01:13:28.766Z,70.70
2022-12-07T01:15:59.014Z,70.44
2022-12-07T01:18:25.569Z,70.77
2022-12-07T01:21:03.698Z,71.39
2022-12-07T01:23:31.424Z,71.21
2022-12-07T01:25:59.410Z,71.93
2022-12-07T01:28:26.630Z,71.61
2022-12-07T01:30:58.697Z,71.29
2022-12-07T01:33:25.239Z,71.31
2022-12-07T01:35:51.749Z,71.75
2022-12-07T01:38:18.226Z,71.95
2022-12-07T01:40:45.282Z,70.91
2022-12-07T01:43:24.785Z,70.39
2022-12-07T01:45:51.393Z,70.30
2022-12-07T01:48:25.279Z,71.57
2022-12-07T01:50:56.660Z,70.44
2022-12-07T01:53:29.899Z,70.88
2022-12-07T01:55:58.639Z,69.86
2022-12-07T01:58:26.113Z,71.02
2022-12-07T02:00:52.594Z,70.50
2022-12-07T02:03:49.473Z,70.29
2022-12-07T02:06:21.718Z,70.52
2022-12-07T02:08:48.252Z,70.48
2022-12-07T02:11:16.365Z,71.42
2022-12-07T02:13:46.220Z,70.71
2022-12-07T02:16:24.806Z,70.73
2022-12-07T02:19:00.463Z,70.20
2022-12-07T02:21:45.479Z,68.75
2022-12-07T02:24:14.867Z,68.19
2022-12-07T02:27:11.177Z,66.79
2022-12-07T02:29:43.553Z,67.11
2022-12-07T02:32:24.450Z,66.29
2022-12-07T02:35:18.581Z,66.33
2022-12-07T02:38:16.454Z,66.71
2022-12-07T02:40:52.879Z,68.38
2022-12-07T02:43:36.946Z,68.64
2022-12-07T02:46:10.172Z,68.71
2022-12-07T02:48:42.192Z,68.72
2022-12-07T02:51:08.645Z,69.10
2022-12-07T02:53:41.029Z,69.28
2022-12-07T02:56:27.845Z,70.07
2022-12-07T02:59:00.401Z,70.25
2022-12-07T03:01:57.035Z,70.28
2022-12-07T03:04:50.966Z,71.37
2022-12-07T03:07:31.993Z,71.75
2022-12-07T03:10:25.655Z,71.67
2022-12-07T03:13:10.888Z,70.56
2022-12-07T03:16:03.815Z,71.17
2022-12-07T03:18:35.172Z,70.82
2022-12-07T03:21:12.213Z,70.36
2022-12-07T03:23:44.872Z,69.36
2022-12-07T03:26:15.812Z,68.88
2022-12-07T03:28:50.950Z,68.96
2022-12-07T03:31:27.533Z,68.28
2022-12-07T03:34:22.380Z,69.51
2022-12-07T03:36:54.518Z,69.43
2022-12-07T03:39:48.809Z,69.91
2022-12-07T03:42:15.334Z,69.63
2022-12-07T03:44:43.533Z,69.86
2022-12-07T03:47:31.873Z,70.14
2022-12-07T03:50:22.660Z,69.50
2022-12-07T03:53:15.144Z,68.71
2022-12-07T03:55:46.917Z,67.67
2022-12-07T03:58:18.690Z,67.20
2022-12-07T04:00:46.134Z,66.04
2022-12-07T04:03:12.825Z,65.33
2022-12-07T04:05:40.533Z,64.74
2022-12-07T04:08:07.542Z,63.23
2022-12-07T04:10:34.393Z,63.15
2022-12-07T04:13:20.864Z,62.70
2022-12-07T04:16:07.460Z,62.61
2022-12-07T04:18:33.988Z,62.41
2022-12-07T04:21:00.433Z,61.53
2022-12-07T04:23:26.902Z,60.93
2022-12-07T04:25:53.383Z,61.79
2022-12-07T04:28:19.855Z,64.79
2022-12-07T04:30:46.475Z,63.62
2022-12-07T04:33:12.969Z,64.49
2022-12-07T04:35:39.425Z,65.75
2022-12-07T04:38:05.901Z,64.17
2022-12-07T04:40:32.437Z,64.28
2022-12-07T04:42:58.901Z,62.91
2022-12-07T04:45:25.364Z,63.24
2022-12-07T04:47:51.839Z,61.93
2022-12-07T04:50:18.457Z,62.01
2022-12-07T04:52:44.912Z,60.79
2022-12-07T04:55:11.444Z,60.69
2022-12-07T04:57:37.920Z,60.24
2022-12-07T05:00:05.188Z,62.31
2022-12-07T05:02:32.081Z,61.76
2022-12-07T05:04:58.660Z,62.70
2022-12-07T05:07:25.214Z,64.02
2022-12-07T05:09:51.726Z,63.96
2022-12-07T05:12:18.175Z,61.92
2022-12-07T05:14:44.657Z,61.59
2022-12-07T05:17:11.128Z,62.23
2022-12-07T05:19:37.613Z,63.22
2022-12-07T05:22:04.119Z,63.07
2022-12-07T05:24:30.589Z,63.89
2022-12-07T05:26:57.057Z,65.38
2022-12-07T05:29:23.531Z,62.65
2022-12-07T05:31:50.331Z,61.79
2022-12-07T05:34:16.857Z,61.53
2022-12-07T05:36:43.328Z,60.21
2022-12-07T05:39:09.821Z,59.85
2022-12-07T05:41:36.300Z,59.30
2022-12-07T05:44:03.365Z,59.58
2022-12-07T05:46:29.888Z,59.65
2022-12-07T05:48:56.347Z,61.82
2022-12-07T05:51:23.172Z,63.39
2022-12-07T05:53:49.736Z,63.78
2022-12-07T05:56:16.746Z,64.35
2022-12-07T05:58:43.260Z,66.63
2022-12-07T06:01:09.816Z,63.86
2022-12-07T06:03:36.291Z,63.83
2022-12-07T06:06:02.835Z,64.13
2022-12-07T06:08:29.406Z,64.26
2022-12-07T06:10:55.906Z,62.33
2022-12-07T06:13:22.387Z,62.96
2022-12-07T06:15:48.840Z,62.06
2022-12-07T06:18:15.379Z,62.99
2022-12-07T06:20:41.850Z,63.92
2022-12-07T06:23:08.298Z,64.09
2022-12-07T06:25:34.762Z,65.62
2022-12-07T06:28:01.230Z,65.99
2022-12-07T06:30:27.698Z,66.49
2022-12-07T06:32:54.241Z,67.30
2022-12-07T06:35:20.732Z,66.87
2022-12-07T06:37:47.206Z,66.37
2022-12-07T06:40:13.788Z,65.97
2022-12-07T06:42:40.292Z,66.01
2022-12-07T06:45:07.134Z,67.62
2022-12-07T06:47:42.716Z,67.36
2022-12-07T06:50:13.718Z,67.48
2022-12-07T06:52:40.203Z,67.27
2022-12-07T06:55:07.119Z,67.23
2022-12-07T06:57:33.603Z,67.49
2022-12-07T07:00:00.648Z,66.70
2022-12-07T07:02:27.537Z,67.58
2022-12-07T07:04:54.029Z,67.93
2022-12-07T07:07:20.511Z,66.84
2022-12-07T07:09:46.985Z,65.10
2022-12-07T07:12:13.463Z,63.61
2022-12-07T07:14:40.081Z,62.33
2022-12-07T07:17:06.563Z,65.30
2022-12-07T07:19:33.177Z,64.98
2022-12-07T07:21:59.749Z,65.00
2022-12-07T07:24:26.289Z,65.23
2022-12-07T07:26:52.775Z,65.32
2022-12-07T07:29:19.282Z,64.86
2022-12-07T07:31:45.844Z,66.15
2022-12-07T07:34:12.393Z,65.99
2022-12-07T07:36:38.988Z,65.90
2022-12-07T07:39:05.546Z,65.79
2022-12-07T07:41:32.858Z,66.83
2022-12-07T07:43:59.342Z,66.74
2022-12-07T07:46:25.937Z,66.49
2022-12-07T07:48:52.442Z,66.58
2022-12-07T07:51:18.929Z,67.25
2022-12-07T07:53:45.412Z,67.58
2022-12-07T07:56:11.892Z,68.04
2022-12-07T07:58:38.401Z,66.69
2022-12-07T08:01:08.823Z,66.89
2022-12-07T08:03:36.310Z,66.42
2022-12-07T08:06:04.515Z,65.61
2022-12-07T08:08:31.161Z,65.15
2022-12-07T08:10:57.688Z,64.88
2022-12-07T08:13:30.611Z,65.00
2022-12-07T08:15:57.677Z,65.70
2022-12-07T08:18:24.252Z,65.06
2022-12-07T08:20:50.753Z,65.30
2022-12-07T08:23:17.247Z,64.99
2022-12-07T08:25:43.761Z,64.99
2022-12-07T08:28:10.349Z,64.69
2022-12-07T08:30:36.825Z,65.85
2022-12-07T08:33:03.410Z,64.65
2022-12-07T08:35:29.912Z,65.54
2022-12-07T08:37:56.424Z,65.50
2022-12-07T08:40:22.904Z,66.40
2022-12-07T08:42:50.334Z,66.90
2022-12-07T08:45:23.366Z,66.96
2022-12-07T08:48:07.002Z,68.12
2022-12-07T08:50:36.461Z,68.90
2022-12-07T08:53:04.639Z,67.59
2022-12-07T08:55:32.717Z,67.73
2022-12-07T08:58:01.270Z,68.25
2022-12-07T09:00:28.130Z,67.74
2022-12-07T09:02:55.227Z,69.84
2022-12-07T09:05:22.043Z,69.64
2022-12-07T09:07:55.772Z,69.26
2022-12-07T09:10:22.353Z,66.70
2022-12-07T09:12:48.882Z,66.41
2022-12-07T09:15:15.682Z,64.34
2022-12-07T09:17:42.277Z,65.03
2022-12-07T09:20:09.295Z,63.88
2022-12-07T09:22:35.784Z,63.78
2022-12-07T09:25:03.671Z,62.00
2022-12-07T09:27:30.585Z,61.85
2022-12-07T09:29:57.093Z,63.33
2022-12-07T09:32:24.004Z,61.86
2022-12-07T09:34:50.584Z,60.74
2022-12-07T09:37:17.195Z,61.12
2022-12-07T09:39:49.856Z,62.97
2022-12-07T09:42:36.501Z,63.49
2022-12-07T09:45:27.798Z,61.79
2022-12-07T09:47:54.564Z,62.90
2022-12-07T09:50:27.714Z,59.43
2022-12-07T09:53:09.314Z,58.93
2022-12-07T09:55:55.365Z,58.80
2022-12-07T09:58:25.933Z,58.17
2022-12-07T10:00:59.513Z,56.64
2022-12-07T10:03:28.605Z,56.44
2022-12-07T10:05:56.401Z,56.22
2022-12-07T10:08:23.062Z,57.84
2022-12-07T10:10:56.268Z,57.94
2022-12-07T10:13:38.879Z,56.86
2022-12-07T10:16:07.521Z,56.76
2022-12-07T10:18:40.460Z,56.54
2022-12-07T10:21:09.760Z,57.33
2022-12-07T10:23:37.853Z,56.89
2022-12-07T10:26:30.367Z,56.78
2022-12-07T10:29:01.358Z,56.12
2022-12-07T10:31:27.887Z,57.19
2022-12-07T10:33:58.995Z,57.13
2022-12-07T10:36:39.551Z,56.45
2022-12-07T10:39:16.020Z,56.43
2022-12-07T10:41:54.966Z,55.89
2022-12-07T10:44:29.635Z,55.51
2022-12-07T10:47:21.114Z,56.73
2022-12-07T10:50:02.388Z,55.69
2022-12-07T10:52:46.262Z,55.07
2022-12-07T10:55:26.788Z,55.55
2022-12-07T10:57:53.204Z,54.98
2022-12-07T11:00:25.464Z,55.13
2022-12-07T11:03:27.627Z,57.08
2022-12-07T11:06:20.973Z,57.03
2022-12-07T11:09:18.314Z,56.79
2022-12-07T11:12:14.422Z,56.29
2022-12-07T11:15:13.744Z,56.15
2022-12-07T11:18:10.193Z,57.18
2022-12-07T11:20:46.353Z,57.60
2022-12-07T11:23:45.362Z,56.97
2022-12-07T11:26:48.108Z,58.63
2022-12-07T11:29:54.520Z,60.90
2022-12-07T11:32:44.084Z,61.85
2022-12-07T11:35:48.351Z,61.70
2022-12-07T11:38:28.205Z,62.92
2022-12-07T11:41:06.384Z,62.92
2022-12-07T11:43:36.690Z,63.89
2022-12-07T11:46:17.025Z,60.30
2022-12-07T11:49:03.123Z,60.65
2022-12-07T11:51:36.523Z,62.05
2022-12-07T11:54:17.391Z,62.01
2022-12-07T11:56:48.219Z,62.20
2022-12-07T11:59:37.401Z,62.87
2022-12-07T12:02:20.155Z,62.20
2022-12-07T12:05:19.717Z,61.49
2022-12-07T12:11:14.074Z,60.60
2022-12-07T12:17:35.899Z,60.61
2022-12-07T12:20:27.432Z,58.53
2022-12-07T12:22:57.017Z,60.03
2022-12-07T12:25:32.436Z,57.40
2022-12-07T12:28:00.381Z,55.66
2022-12-07T12:30:41.343Z,58.13
2022-12-07T12:33:23.315Z,57.17
2022-12-07T12:36:15.769Z,57.18
2022-12-07T12:39:07.141Z,57.34
2022-12-07T12:41:36.315Z,57.35
2022-12-07T12:44:23.720Z,58.13
2022-12-07T12:47:00.436Z,57.36
2022-12-07T12:49:26.848Z,58.11
2022-12-07T12:52:16.198Z,57.24
2022-12-07T12:55:12.352Z,58.26
2022-12-07T12:57:39.194Z,56.99
2022-12-07T13:00:23.661Z,56.96
2022-12-07T13:02:54.339Z,57.21
2022-12-07T13:05:24.324Z,56.43
2022-12-07T13:07:59.252Z,56.98
2022-12-07T13:10:28.829Z,56.48
2022-12-07T13:13:01.452Z,56.87
2022-12-07T13:15:52.350Z,55.99
2022-12-07T13:18:28.071Z,57.09
2022-12-07T13:20:57.446Z,56.74
2022-12-07T13:23:28.834Z,56.61
2022-12-07T13:26:17.357Z,55.66
2022-12-07T13:28:53.287Z,56.05
2022-12-07T13:31:28.289Z,55.60
2022-12-07T13:33:54.769Z,56.90
2022-12-07T13:36:25.307Z,57.96
2022-12-07T13:38:58.053Z,59.19
2022-12-07T13:41:29.828Z,60.00
2022-12-07T13:44:10.475Z,61.09
2022-12-07T13:46:57.130Z,59.83
2022-12-07T13:49:28.438Z,59.55
2022-12-07T13:52:07.599Z,59.42
2022-12-07T13:54:34.070Z,59.26
2022-12-07T13:57:00.565Z,57.53
2022-12-07T13:59:27.545Z,58.21
2022-12-07T14:01:56.574Z,57.27
2022-12-07T14:04:35.688Z,58.13
2022-12-07T14:07:20.977Z,58.66
2022-12-07T14:10:01.141Z,58.88
2022-12-07T14:12:30.179Z,59.48
2022-12-07T14:14:58.893Z,57.97
2022-12-07T14:17:27.871Z,61.46
2022-12-07T14:19:58.645Z,61.49
2022-12-07T14:22:31.578Z,60.89
2022-12-07T14:25:26.599Z,61.99
2022-12-07T14:28:01.553Z,63.23
2022-12-07T14:30:34.600Z,62.50
2022-12-07T14:33:04.879Z,61.00
2022-12-07T14:35:33.151Z,60.74
2022-12-07T14:37:59.775Z,60.43
2022-12-07T14:40:30.581Z,62.07
2022-12-07T14:43:02.988Z,62.10
2022-12-07T14:45:29.833Z,61.40
2022-12-07T14:53:44.528Z,60.45
2022-12-07T14:56:11.068Z,60.80
2022-12-07T14:58:37.565Z,59.87
2022-12-07T15:01:04.315Z,61.50
2022-12-07T15:03:30.920Z,63.68
2022-12-07T15:05:57.787Z,64.75
2022-12-07T15:08:24.311Z,64.01
2022-12-07T15:10:50.834Z,63.28
2022-12-07T15:13:17.344Z,64.73
2022-12-07T15:15:43.997Z,64.36
2022-12-07T15:18:10.574Z,64.98
2022-12-07T15:20:37.123Z,63.74
2022-12-07T15:23:03.685Z,61.63
2022-12-07T15:25:30.243Z,61.44
2022-12-07T15:27:56.753Z,61.54
2022-12-07T15:30:23.351Z,59.90
2022-12-07T15:32:54.656Z,59.37
2022-12-07T15:35:22.143Z,58.69
2022-12-07T15:37:49.014Z,57.50
2022-12-07T15:40:16.339Z,57.53
2022-12-07T15:42:43.453Z,57.66
2022-12-07T15:45:11.062Z,56.47
2022-12-07T15:50:27.460Z,56.06
2022-12-07T15:52:54.268Z,56.75
2022-12-07T15:55:21.315Z,56.51
2022-12-07T15:57:48.140Z,56.96
2022-12-07T16:00:15.301Z,57.62
2022-12-07T16:02:41.917Z,56.40
2022-12-07T16:05:08.617Z,56.67
2022-12-07T16:07:35.177Z,56.02
2022-12-07T16:10:01.791Z,55.91
2022-12-07T16:12:28.305Z,56.79
2022-12-07T16:14:54.928Z,55.58
2022-12-07T16:17:21.509Z,55.59
2022-12-07T16:19:47.997Z,55.06
2022-12-07T16:22:14.492Z,56.12
2022-12-07T16:24:41.032Z,56.00
2022-12-07T16:27:07.534Z,55.41
2022-12-07T16:29:34.071Z,55.37
2022-12-07T16:32:00.552Z,54.44
2022-12-07T16:34:27.038Z,54.22
2022-12-07T16:37:08.749Z,53.63
2022-12-07T16:39:35.300Z,54.46
2022-12-07T16:42:02.489Z,53.23
2022-12-07T16:44:28.978Z,54.45
2022-12-07T16:46:55.654Z,53.70
2022-12-07T16:49:22.370Z,53.29
2022-12-07T16:52:08.676Z,53.79
2022-12-07T16:54:38.314Z,53.22
2022-12-07T16:57:05.092Z,54.01
2022-12-07T16:59:31.637Z,54.01
2022-12-07T17:01:58.124Z,53.27
2022-12-07T17:04:24.659Z,53.45
2022-12-07T17:06:51.212Z,53.09
2022-12-07T17:09:21.130Z,52.31
2022-12-07T17:11:48.939Z,51.35
2022-12-07T17:14:15.629Z,52.73
2022-12-07T17:16:42.209Z,51.18
2022-12-07T17:19:12.394Z,51.88
2022-12-07T17:21:39.716Z,51.06
2022-12-07T17:24:09.813Z,51.08
2022-12-07T17:26:36.431Z,51.21
2022-12-07T17:29:05.573Z,50.61
2022-12-07T17:31:33.003Z,50.38
2022-12-07T17:33:59.489Z,51.08
2022-12-07T17:36:30.878Z,50.76
2022-12-07T17:38:58.026Z,50.79
2022-12-07T17:41:27.582Z,50.98
2022-12-07T17:43:54.057Z,51.39
2022-12-07T17:46:20.582Z,51.32
2022-12-07T17:48:47.131Z,53.19
2022-12-07T17:51:13.736Z,54.04
2022-12-07T17:53:40.329Z,54.98
2022-12-07T17:58:53.753Z,55.06
2022-12-07T18:01:23.793Z,56.00
2022-12-07T18:03:51.115Z,56.62
2022-12-07T18:06:17.717Z,56.50
2022-12-07T18:08:44.458Z,56.86
2022-12-07T18:11:11.615Z,57.48
2022-12-07T18:13:38.308Z,58.59
2022-12-07T18:16:08.639Z,58.98
2022-12-07T18:18:36.649Z,59.28
2022-12-07T18:21:05.598Z,60.42
2022-12-07T18:23:32.112Z,60.78
2022-12-07T18:25:58.653Z,62.18
2022-12-07T18:28:25.352Z,62.46
2022-12-07T18:33:42.465Z,65.57
2022-12-07T18:36:09.606Z,65.90
2022-12-07T18:38:36.884Z,66.81
2022-12-07T18:41:04.086Z,68.61
2022-12-07T18:43:30.868Z,69.04
2022-12-07T18:45:57.414Z,70.03
2022-12-07T18:48:24.225Z,69.70
2022-12-07T18:51:02.182Z,69.63
2022-12-07T18:53:29.098Z,69.09
2022-12-07T18:56:15.102Z,67.44
2022-12-07T18:58:42.909Z,66.21
2022-12-07T19:01:09.482Z,66.62
2022-12-07T19:03:36.098Z,66.80
2022-12-07T19:06:06.714Z,66.32
2022-12-07T19:08:33.495Z,66.28
2022-12-07T19:11:00.048Z,66.93
2022-12-07T19:13:26.558Z,65.83
2022-12-07T19:15:53.149Z,66.08
2022-12-07T19:18:19.646Z,64.48
2022-12-07T19:20:46.106Z,64.08
2022-12-07T19:23:12.578Z,65.55
2022-12-07T19:25:40.162Z,64.06
2022-12-07T19:28:06.710Z,63.55
2022-12-07T19:30:33.233Z,63.42
2022-12-07T19:32:59.803Z,63.71
2022-12-07T19:35:26.328Z,63.76
2022-12-07T19:37:52.848Z,65.11
2022-12-07T19:40:19.334Z,63.80
2022-12-07T19:42:45.884Z,63.02
2022-12-07T19:45:12.475Z,62.28
2022-12-07T19:47:39.024Z,62.75
2022-12-07T19:50:07.384Z,62.21
2022-12-07T19:52:36.760Z,62.26
2022-12-07T19:55:04.844Z,62.20
2022-12-07T19:57:31.744Z,62.65
2022-12-07T19:59:58.330Z,62.92
2022-12-07T20:02:24.930Z,61.72
2022-12-07T20:04:51.475Z,61.21
2022-12-07T20:07:17.998Z,60.34
2022-12-07T20:09:44.499Z,61.73
2022-12-07T20:12:11.539Z,63.38
2022-12-07T20:14:38.348Z,62.58
2022-12-07T20:17:06.001Z,62.52
2022-12-07T20:19:35.017Z,62.11
2022-12-07T20:22:01.951Z,61.85
2022-12-07T20:24:28.522Z,62.31
2022-12-07T20:26:55.392Z,62.41
2022-12-07T20:29:24.472Z,60.70
2022-12-07T20:31:52.457Z,59.31
2022-12-07T20:34:19.060Z,58.68
2022-12-07T20:36:46.066Z,59.15
2022-12-07T20:39:12.799Z,58.87
2022-12-07T20:41:39.992Z,57.45
2022-12-07T20:44:06.684Z,56.52
2022-12-07T20:46:33.245Z,56.95
2022-12-07T20:49:01.077Z,57.01
2022-12-07T20:51:29.159Z,56.97
2022-12-07T20:53:56.643Z,57.57
2022-12-07T20:56:28.743Z,56.92
2022-12-07T20:59:02.556Z,56.19
2022-12-07T21:01:30.351Z,56.23
2022-12-07T21:03:58.926Z,55.93
2022-12-07T21:06:26.980Z,55.68
2022-12-07T21:08:59.415Z,55.30
2022-12-07T21:11:28.662Z,54.21
2022-12-07T21:13:55.427Z,54.02
2022-12-07T21:16:27.973Z,53.69
2022-12-07T21:18:56.856Z,54.62
2022-12-07T21:21:24.208Z,54.85
2022-12-07T21:23:58.101Z,53.69
2022-12-07T21:26:27.885Z,52.96
2022-12-07T21:28:55.800Z,53.78
2022-12-07T21:31:22.892Z,54.69
2022-12-07T21:33:49.481Z,54.86
2022-12-07T21:36:20.486Z,54.36
2022-12-07T21:38:48.064Z,53.74
2022-12-07T21:41:20.571Z,54.12
2022-12-07T21:43:48.260Z,54.34
2022-12-07T21:46:16.343Z,53.81
2022-12-07T21:48:43.060Z,54.61
2022-12-07T21:51:14.033Z,54.88
2022-12-07T21:53:43.415Z,53.27
2022-12-07T21:56:34.760Z,52.98
2022-12-07T21:59:04.533Z,52.23
2022-12-07T22:01:33.578Z,51.76
2022-12-07T22:04:00.215Z,53.02
2022-12-07T22:06:27.840Z,53.60
2022-12-07T22:08:55.776Z,53.83
2022-12-07T22:11:22.559Z,52.96
2022-12-07T22:13:49.247Z,52.23
2022-12-07T22:16:15.934Z,51.39
2022-12-07T22:18:42.519Z,51.53
2022-12-07T22:21:08.997Z,51.01
2022-12-07T22:23:35.628Z,51.81
2022-12-07T22:26:10.396Z,51.59
2022-12-07T22:28:37.861Z,50.72
2022-12-07T22:31:06.181Z,50.45
2022-12-07T22:33:33.673Z,50.29
2022-12-07T22:36:00.393Z,50.37
2022-12-07T22:38:27.606Z,50.85
2022-12-07T22:40:55.499Z,50.56
2022-12-07T22:43:24.571Z,50.09
2022-12-07T22:45:58.827Z,50.65
2022-12-07T22:48:26.870Z,50.26
2022-12-07T22:50:54.789Z,50.00
2022-12-07T22:53:23.534Z,50.59
2022-12-07T22:55:51.126Z,50.50
2022-12-07T22:58:20.260Z,51.07
2022-12-07T23:00:46.880Z,50.62
2022-12-07T23:03:14.341Z,50.92
2022-12-07T23:05:46.202Z,50.07
2022-12-07T23:08:12.859Z,49.97
2022-12-07T23:10:47.347Z,50.08
2022-12-07T23:13:16.642Z,50.68
2022-12-07T23:15:43.297Z,50.97
2022-12-07T23:18:10.212Z,51.30
2022-12-07T23:20:37.124Z,51.17
2022-12-07T23:23:04.301Z,50.86
2022-12-07T23:25:32.772Z,50.36
2022-12-07T23:27:59.881Z,51.07
2022-12-07T23:30:26.784Z,50.54
2022-12-07T23:32:53.312Z,51.91
2022-12-07T23:35:19.808Z,51.55
2022-12-07T23:37:46.283Z,50.75
2022-12-07T23:40:12.824Z,51.53
2022-12-07T23:42:39.409Z,51.89
2022-12-07T23:45:06.472Z,51.72
2022-12-07T23:47:33.057Z,52.24
2022-12-07T23:49:59.564Z,52.84
2022-12-07T23:52:26.081Z,53.18
2022-12-07T23:54:52.549Z,52.90
2022-12-07T23:57:19.040Z,52.26
2022-12-07T23:59:45.520Z,53.50
